Terminal Aerodrome Forecast
Issued by NWS Topeka, KS

Home | Current Version | Previous Version | Text Only | Print | Product List | Glossary Off
Versions: 1 2 3 4 5 6 7 8 9 10 11 12 13 14 15 16 17 18 19 20 21 22 23

000
FTUS43 KTOP 221729
TAFTOP
TAF
KTOP 221729Z 2218/2318 17014G21KT P6SM SKC
     FM230000 16009KT P6SM SCT200
     FM231200 17007KT 5SM BR BKN009 OVC015
     FM231500 17010KT P6SM BKN016=

USA.gov is the U.S. government's official web portal to all federal, state and local government web resources and services.